Sealand Michigan — 9HA3390 — position and weather

sailwx.info

Track history (hours):
 
Tides and Currents Weather Stations Pressure Air Temp Water Temp Dewpoint Dewpoint Depression Visibility Wind Speed Wind Dir Waves Ship Positions

Sealand Michigan

Last reported at 2018-Feb-14 21:19 UTC. Time now 2018-Feb-19 06:21 UTC.
Position N 25°33' W 079°40'.

Length 303 m; draft 10.2 m.

Type: Cargo ship. MMSI: 229538000.

Date/timePositionNaut miles runAvg speedWind from/ knotsBaromVisibWave heightAir tempDewpointWater temp
2018-Feb-14 21:19N 25°33' W 079°40'514.7
2018-Feb-14 21:00N 25°38' W 079°40'714.5
2018-Feb-14 20:30N 25°44' W 079°43'714.0
2018-Feb-14 20:00N 25°50' W 079°47'713.8
2018-Feb-14 19:30N 25°55' W 079°52'713.7
2018-Feb-14 19:00N 26°00' W 079°57'612.6
2018-Feb-14 18:31N 26°05' W 080°03'4 7.3
2018-Feb-14 18:01N 26°06' W 080°07'1 2.0
2018-Feb-14 17:31N 26°05' W 080°07'0 0.8
2018-Feb-14 17:00N 26°04' W 080°07'0 0.0
2018-Feb-14 16:30N 26°04' W 080°07'0 0.0
2018-Feb-14 16:00N 26°04' W 080°07'0 0.0
2018-Feb-14 15:30N 26°04' W 080°07'0 0.0
2018-Feb-14 15:00N 26°04' W 080°07'0 0.0
2018-Feb-14 14:30N 26°04' W 080°07'0 0.0
2018-Feb-14 14:00N 26°04' W 080°07'0 0.0
2018-Feb-14 13:30N 26°04' W 080°07'0 0.0
2018-Feb-14 13:00N 26°04' W 080°07'0 0.0
2018-Feb-14 12:30N 26°04' W 080°07'0 0.0
2018-Feb-14 12:00N 26°04' W 080°07'0 0.0
2018-Feb-14 11:30N 26°04' W 080°07'0 0.0
2018-Feb-14 11:00N 26°04' W 080°07'0 0.0
2018-Feb-14 10:30N 26°04' W 080°07'0 0.0
2018-Feb-14 10:00N 26°04' W 080°07'0 0.0
2018-Feb-14 09:30N 26°04' W 080°07'0 0.0
2018-Feb-14 09:00N 26°04' W 080°07'0 0.0
2018-Feb-14 08:30N 26°04' W 080°07'0 0.0
2018-Feb-14 08:00N 26°04' W 080°07'0 0.0
2018-Feb-14 07:30N 26°04' W 080°07'0 0.0
2018-Feb-14 07:00N 26°04' W 080°07'0 0.0
2018-Feb-14 06:30N 26°04' W 080°07'0 0.0
2018-Feb-14 06:00N 26°04' W 080°07'0 0.0
2018-Feb-14 05:30N 26°04' W 080°07'0 0.0
2018-Feb-14 05:00N 26°04' W 080°07'0 0.0
2018-Feb-14 04:30N 26°04' W 080°07'0 0.0
2018-Feb-14 04:00N 26°04' W 080°07'0 0.0
2018-Feb-14 03:30N 26°04' W 080°07'0 0.0
2018-Feb-14 03:00N 26°04' W 080°07'0 0.0
2018-Feb-14 02:30N 26°04' W 080°07'0 0.0
2018-Feb-14 01:57N 26°04' W 080°07'0 0.0
2018-Feb-14 01:30N 26°04' W 080°07'0 0.0
2018-Feb-14 01:00N 26°04' W 080°07'0 0.0
2018-Feb-14 00:30N 26°04' W 080°07'0 0.0
2018-Feb-14 00:00N 26°04' W 080°07'1 2.4
2018-Feb-13 23:30N 26°05' W 080°07'4 7.3
2018-Feb-13 23:00N 26°06' W 080°03'2 3.3
2018-Feb-13 22:30N 26°05' W 080°01'4 8.5
2018-Feb-13 22:00N 26°07' W 079°57'5 9.6
2018-Feb-13 21:30N 26°09' W 079°52'5 9.5
2018-Feb-13 21:00N 26°11' W 079°47'3 5.1
2018-Feb-13 20:30N 26°13' W 079°45'3 6.6
2018-Feb-13 20:00N 26°12' W 079°42'5 9.5
2018-Feb-13 19:30N 26°14' W 079°37'510.0
2018-Feb-13 19:00N 26°16' W 079°31'510.1
2018-Feb-13 18:30N 26°18' W 079°26'2 4.0
2018-Feb-13 18:00N 26°18' W 079°24'510.4
2018-Feb-13 17:30N 26°19' W 079°19'  
Track history (hours):
 
Tides and Currents Weather Stations Pressure Air Temp Water Temp Dewpoint Dewpoint Depression Visibility Wind Speed Wind Dir Waves Ship Positions

Sealand Michigan

Last reported at 2018-Feb-14 21:19 UTC. Time now 2018-Feb-19 06:21 UTC.
Position N 25°33' W 079°40'.

Length 303 m; draft 10.2 m.

Type: Cargo ship. MMSI: 229538000.

Date/timePositionNaut miles runAvg speedWind from/ knotsBaromVisibWave heightAir tempDewpointWater temp
2018-Feb-14 21:19N 25°33' W 079°40'514.7
2018-Feb-14 21:00N 25°38' W 079°40'714.5
2018-Feb-14 20:30N 25°44' W 079°43'714.0
2018-Feb-14 20:00N 25°50' W 079°47'713.8
2018-Feb-14 19:30N 25°55' W 079°52'713.7
2018-Feb-14 19:00N 26°00' W 079°57'612.6
2018-Feb-14 18:31N 26°05' W 080°03'4 7.3
2018-Feb-14 18:01N 26°06' W 080°07'1 2.0
2018-Feb-14 17:31N 26°05' W 080°07'0 0.8
2018-Feb-14 17:00N 26°04' W 080°07'0 0.0
2018-Feb-14 16:30N 26°04' W 080°07'0 0.0
2018-Feb-14 16:00N 26°04' W 080°07'0 0.0
2018-Feb-14 15:30N 26°04' W 080°07'0 0.0
2018-Feb-14 15:00N 26°04' W 080°07'0 0.0
2018-Feb-14 14:30N 26°04' W 080°07'0 0.0
2018-Feb-14 14:00N 26°04' W 080°07'0 0.0
2018-Feb-14 13:30N 26°04' W 080°07'0 0.0
2018-Feb-14 13:00N 26°04' W 080°07'0 0.0
2018-Feb-14 12:30N 26°04' W 080°07'0 0.0
2018-Feb-14 12:00N 26°04' W 080°07'0 0.0
2018-Feb-14 11:30N 26°04' W 080°07'0 0.0
2018-Feb-14 11:00N 26°04' W 080°07'0 0.0
2018-Feb-14 10:30N 26°04' W 080°07'0 0.0
2018-Feb-14 10:00N 26°04' W 080°07'0 0.0
2018-Feb-14 09:30N 26°04' W 080°07'0 0.0
2018-Feb-14 09:00N 26°04' W 080°07'0 0.0
2018-Feb-14 08:30N 26°04' W 080°07'0 0.0
2018-Feb-14 08:00N 26°04' W 080°07'0 0.0
2018-Feb-14 07:30N 26°04' W 080°07'0 0.0
2018-Feb-14 07:00N 26°04' W 080°07'0 0.0
2018-Feb-14 06:30N 26°04' W 080°07'0 0.0
2018-Feb-14 06:00N 26°04' W 080°07'0 0.0
2018-Feb-14 05:30N 26°04' W 080°07'0 0.0
2018-Feb-14 05:00N 26°04' W 080°07'0 0.0
2018-Feb-14 04:30N 26°04' W 080°07'0 0.0
2018-Feb-14 04:00N 26°04' W 080°07'0 0.0
2018-Feb-14 03:30N 26°04' W 080°07'0 0.0
2018-Feb-14 03:00N 26°04' W 080°07'0 0.0
2018-Feb-14 02:30N 26°04' W 080°07'0 0.0
2018-Feb-14 01:57N 26°04' W 080°07'0 0.0
2018-Feb-14 01:30N 26°04' W 080°07'0 0.0
2018-Feb-14 01:00N 26°04' W 080°07'0 0.0
2018-Feb-14 00:30N 26°04' W 080°07'0 0.0
2018-Feb-14 00:00N 26°04' W 080°07'1 2.4
2018-Feb-13 23:30N 26°05' W 080°07'4 7.3
2018-Feb-13 23:00N 26°06' W 080°03'2 3.3
2018-Feb-13 22:30N 26°05' W 080°01'4 8.5
2018-Feb-13 22:00N 26°07' W 079°57'5 9.6
2018-Feb-13 21:30N 26°09' W 079°52'5 9.5
2018-Feb-13 21:00N 26°11' W 079°47'3 5.1
2018-Feb-13 20:30N 26°13' W 079°45'3 6.6
2018-Feb-13 20:00N 26°12' W 079°42'5 9.5
2018-Feb-13 19:30N 26°14' W 079°37'510.0
2018-Feb-13 19:00N 26°16' W 079°31'510.1
2018-Feb-13 18:30N 26°18' W 079°26'2 4.0
2018-Feb-13 18:00N 26°18' W 079°24'510.4
2018-Feb-13 17:30N 26°19' W 079°19'  

Dump ship's entire track history